Time;durP1;ratioP1;P1;durP2;ratioP2;P2;SDS_P1;SDS_P2;PMS_P1;PMS_P2;Temp;Humidity;BMP_temperature;BMP_pressure;BME280_temperature;BME280_humidity;BME280_pressure;Samples;Min_cycle;Max_cycle;Signal;HPM_P1;HPM_P2
2023/10/24 00:00:29;;;;;;;4.80;2.10;;;13.50;99.90;;;;;;4121665;28;20030;-84
2023/10/24 00:02:30;;;;;;;6.03;2.22;;;13.40;99.90;;;;;;4124292;28;20494;-83
2023/10/24 00:04:30;;;;;;;6.47;2.55;;;13.50;99.90;;;;;;4126149;28;20189;-83
2023/10/24 00:06:31;;;;;;;4.25;2.20;;;13.40;99.90;;;;;;4121828;28;20041;-84
2023/10/24 00:08:31;;;;;;;5.65;2.00;;;13.40;99.90;;;;;;4127284;28;20034;-85
2023/10/24 00:10:33;;;;;;;4.28;2.13;;;13.50;99.90;;;;;;4123068;28;20034;-84
2023/10/24 00:12:34;;;;;;;5.30;1.90;;;13.50;99.90;;;;;;4123004;28;20074;-84
2023/10/24 00:14:34;;;;;;;10.65;2.50;;;13.50;99.90;;;;;;4108564;28;20430;-83
2023/10/24 00:16:35;;;;;;;5.90;2.20;;;13.50;99.90;;;;;;4104726;28;20057;-84
2023/10/24 00:18:35;;;;;;;5.97;2.20;;;13.50;99.90;;;;;;4124714;28;20199;-83
2023/10/24 00:20:36;;;;;;;3.83;2.13;;;13.50;99.90;;;;;;4127274;28;20113;-85
2023/10/24 00:22:37;;;;;;;3.33;2.10;;;13.50;99.90;;;;;;4124307;28;20459;-84
2023/10/24 00:24:38;;;;;;;7.63;2.30;;;13.50;99.90;;;;;;4124739;28;20047;-84
2023/10/24 00:26:38;;;;;;;4.72;2.45;;;13.50;99.90;;;;;;4124373;28;20030;-85
2023/10/24 00:28:39;;;;;;;3.63;1.95;;;13.50;99.90;;;;;;3585494;28;15238024;-85
2023/10/24 00:30:40;;;;;;;4.75;2.30;;;13.50;99.90;;;;;;4113886;28;20446;-85
2023/10/24 00:32:40;;;;;;;4.80;2.20;;;13.50;99.90;;;;;;4142151;28;20053;-83
2023/10/24 00:34:41;;;;;;;5.60;2.00;;;13.60;99.90;;;;;;4154281;28;20046;-65
2023/10/24 00:36:43;;;;;;;6.88;1.98;;;13.50;99.90;;;;;;4146629;28;20057;-65
2023/10/24 00:38:43;;;;;;;5.90;2.80;;;13.60;99.90;;;;;;4137810;28;20038;-65
2023/10/24 00:40:44;;;;;;;3.10;2.08;;;13.60;99.90;;;;;;4136099;28;20045;-65
2023/10/24 00:42:45;;;;;;;3.40;1.98;;;13.60;99.90;;;;;;4164970;28;20120;-65
2023/10/24 00:44:46;;;;;;;4.10;2.22;;;13.60;99.90;;;;;;4147396;28;20083;-65
2023/10/24 00:46:48;;;;;;;7.35;2.60;;;13.60;99.90;;;;;;4144598;28;20038;-65
2023/10/24 00:48:48;;;;;;;3.92;2.45;;;13.60;99.90;;;;;;4150429;28;20041;-65
2023/10/24 00:50:49;;;;;;;6.57;2.35;;;13.60;99.90;;;;;;4138323;28;20053;-65
2023/10/24 00:52:50;;;;;;;5.45;2.50;;;13.60;99.90;;;;;;4147071;28;20041;-65
2023/10/24 00:54:50;;;;;;;6.10;2.95;;;13.60;99.90;;;;;;4145007;28;20516;-65
2023/10/24 00:56:51;;;;;;;6.00;2.72;;;13.70;99.90;;;;;;4145898;28;20049;-65
2023/10/24 00:58:52;;;;;;;4.68;2.65;;;13.60;99.90;;;;;;4148385;28;20358;-65
2023/10/24 01:00:54;;;;;;;5.40;2.22;;;13.60;99.90;;;;;;4151033;28;23210;-65
2023/10/24 01:02:55;;;;;;;4.47;2.40;;;13.70;99.90;;;;;;4153596;28;20048;-65
2023/10/24 01:04:59;;;;;;;3.45;2.35;;;13.60;99.90;;;;;;4146130;28;20278;-65
2023/10/24 01:07:00;;;;;;;3.00;2.30;;;13.70;99.90;;;;;;4148334;28;20030;-65
2023/10/24 01:09:00;;;;;;;5.00;2.20;;;13.70;99.90;;;;;;4143889;28;20091;-65
2023/10/24 01:11:01;;;;;;;3.67;1.88;;;13.70;99.90;;;;;;4148028;28;20034;-65
2023/10/24 01:13:02;;;;;;;6.97;2.40;;;13.70;99.90;;;;;;4149378;28;20034;-65
2023/10/24 01:15:04;;;;;;;6.18;2.50;;;13.70;99.90;;;;;;4146768;28;20045;-67
2023/10/24 01:17:14;;;;;;;5.20;2.38;;;13.80;99.90;;;;;;4139991;28;20041;-66
2023/10/24 01:19:14;;;;;;;5.28;2.17;;;13.80;99.90;;;;;;4126317;28;20035;-65
2023/10/24 01:21:15;;;;;;;3.55;2.22;;;13.70;99.90;;;;;;4144694;28;21921;-65
2023/10/24 01:23:16;;;;;;;3.60;2.08;;;13.80;99.90;;;;;;4147646;28;20549;-65
2023/10/24 01:25:17;;;;;;;4.82;2.25;;;13.80;99.90;;;;;;4152561;28;20648;-67
2023/10/24 01:27:19;;;;;;;2.70;1.77;;;13.80;99.90;;;;;;4145790;28;20045;-66
2023/10/24 01:29:20;;;;;;;;;;;13.80;99.90;;;;;;4140416;28;20057;-65
2023/10/24 01:31:20;;;;;;;5.03;2.30;;;13.80;99.90;;;;;;4110136;28;19918;-65
2023/10/24 01:33:22;;;;;;;2.95;2.20;;;13.80;99.90;;;;;;4112975;28;20062;-65
2023/10/24 01:35:23;;;;;;;7.00;2.38;;;13.80;99.90;;;;;;4124511;28;20421;-65
2023/10/24 01:37:24;;;;;;;5.47;2.20;;;13.80;99.90;;;;;;4126096;28;20042;-65
2023/10/24 01:39:25;;;;;;;4.45;2.38;;;13.80;99.90;;;;;;4127505;28;20037;-65
2023/10/24 01:41:25;;;;;;;4.40;1.77;;;13.70;99.90;;;;;;4126179;28;20046;-65
2023/10/24 01:43:26;;;;;;;2.88;1.70;;;13.80;99.90;;;;;;4126084;28;20498;-65
2023/10/24 01:45:26;;;;;;;4.07;2.22;;;13.80;99.90;;;;;;4122911;28;20509;-65
2023/10/24 01:47:27;;;;;;;4.57;2.05;;;13.80;99.90;;;;;;4125259;28;20077;-65
2023/10/24 01:49:27;;;;;;;4.20;1.83;;;13.80;99.90;;;;;;4126091;28;20041;-65
2023/10/24 01:51:28;;;;;;;6.35;1.90;;;13.80;99.90;;;;;;4107844;28;20038;-65
2023/10/24 01:53:29;;;;;;;3.67;1.67;;;13.80;99.90;;;;;;4125268;28;20314;-84
2023/10/24 01:55:30;;;;;;;3.47;1.60;;;13.80;99.90;;;;;;4126408;28;20113;-84
2023/10/24 01:57:30;;;;;;;3.55;1.45;;;13.80;99.90;;;;;;4126568;28;20073;-85
2023/10/24 01:59:31;;;;;;;3.15;1.90;;;13.80;99.90;;;;;;4129309;28;20068;-84
2023/10/24 02:01:32;;;;;;;3.70;1.38;;;13.80;99.90;;;;;;4103931;28;20426;-84
2023/10/24 02:03:33;;;;;;;5.00;1.63;;;13.80;99.90;;;;;;4108786;28;20057;-74
2023/10/24 02:05:35;;;;;;;2.35;1.60;;;13.80;99.90;;;;;;4104955;28;20039;-75
2023/10/24 02:07:35;;;;;;;3.90;1.63;;;13.80;99.90;;;;;;4112109;28;20380;-74
2023/10/24 02:09:36;;;;;;;5.93;1.70;;;13.80;99.90;;;;;;4126807;28;20037;-74
2023/10/24 02:11:37;;;;;;;5.80;1.98;;;13.80;99.90;;;;;;4129514;28;20030;-75
2023/10/24 02:13:37;;;;;;;2.38;1.40;;;13.80;99.90;;;;;;4128835;28;20038;-74
2023/10/24 02:15:38;;;;;;;2.90;1.30;;;13.80;99.90;;;;;;4109403;28;20135;-74
2023/10/24 02:17:41;;;;;;;4.85;1.40;;;13.80;99.90;;;;;;4120499;28;20041;-74
2023/10/24 02:19:42;;;;;;;2.38;1.00;;;13.80;99.90;;;;;;4127895;28;20074;-74
2023/10/24 02:21:42;;;;;;;3.10;1.20;;;13.90;99.90;;;;;;4127239;28;20038;-76
2023/10/24 02:23:43;;;;;;;3.72;1.10;;;13.80;99.90;;;;;;4110583;28;20510;-74
2023/10/24 02:25:43;;;;;;;2.00;1.27;;;13.80;99.90;;;;;;4109954;28;20075;-75
2023/10/24 02:27:44;;;;;;;1.48;1.15;;;13.80;99.90;;;;;;4127458;28;20041;-75
2023/10/24 02:29:45;;;;;;;3.83;1.30;;;13.90;99.90;;;;;;4141386;28;20041;-75
2023/10/24 02:31:45;;;;;;;3.25;1.40;;;13.80;99.90;;;;;;4151862;28;20057;-75
2023/10/24 02:33:46;;;;;;;1.88;1.35;;;13.80;99.90;;;;;;4152811;28;20393;-75
2023/10/24 02:35:46;;;;;;;2.08;1.10;;;13.90;99.90;;;;;;4152999;28;20034;-74
2023/10/24 02:37:47;;;;;;;5.22;1.15;;;13.90;99.90;;;;;;4144191;28;20033;-75
2023/10/24 02:39:47;;;;;;;1.63;1.20;;;13.90;99.90;;;;;;4146887;28;20044;-75
2023/10/24 02:41:48;;;;;;;2.00;0.98;;;13.90;99.90;;;;;;4152138;28;20417;-75
2023/10/24 02:43:49;;;;;;;1.80;0.93;;;13.90;99.90;;;;;;4152428;28;20049;-74
2023/10/24 02:45:49;;;;;;;2.53;1.20;;;13.90;99.90;;;;;;4143887;28;20085;-74
2023/10/24 02:47:50;;;;;;;3.60;1.30;;;13.90;99.90;;;;;;4154126;28;20398;-74
2023/10/24 02:49:50;;;;;;;1.90;1.10;;;14.00;99.90;;;;;;4134484;28;20034;-75
2023/10/24 02:51:51;;;;;;;1.90;0.90;;;13.90;99.90;;;;;;4146952;28;20040;-75
2023/10/24 02:53:52;;;;;;;3.20;1.52;;;13.90;99.90;;;;;;4156240;28;20034;-74
2023/10/24 02:55:52;;;;;;;2.20;1.17;;;13.90;99.90;;;;;;4150358;28;20262;-74
2023/10/24 02:57:53;;;;;;;1.85;1.27;;;13.90;99.90;;;;;;4148677;28;20037;-74
2023/10/24 02:59:54;;;;;;;2.05;1.05;;;13.90;99.90;;;;;;4152374;28;20535;-74
2023/10/24 03:01:54;;;;;;;1.13;0.93;;;13.90;99.90;;;;;;4140570;28;20041;-75
2023/10/24 03:03:55;;;;;;;2.25;1.25;;;13.90;99.90;;;;;;4155110;28;20037;-75
2023/10/24 03:05:56;;;;;;;1.65;0.90;;;13.90;99.90;;;;;;4144591;28;20080;-75
2023/10/24 03:07:56;;;;;;;2.08;0.90;;;13.90;99.90;;;;;;4147999;28;20056;-75
2023/10/24 03:09:57;;;;;;;3.63;1.02;;;13.90;99.90;;;;;;4150438;28;20061;-75
2023/10/24 03:11:58;;;;;;;2.67;1.17;;;13.90;99.90;;;;;;4143369;28;20037;-75
2023/10/24 03:13:58;;;;;;;1.73;1.00;;;13.90;99.90;;;;;;4150720;28;20048;-75
2023/10/24 03:16:06;;;;;;;1.52;0.90;;;13.90;99.90;;;;;;4147936;28;20042;-75
2023/10/24 03:18:07;;;;;;;1.17;1.00;;;13.90;99.90;;;;;;4147495;28;20045;-73
2023/10/24 03:20:08;;;;;;;1.05;0.70;;;13.90;99.90;;;;;;4120594;28;20035;-75
2023/10/24 03:22:08;;;;;;;1.80;1.05;;;13.90;99.90;;;;;;4145901;28;20594;-76
2023/10/24 03:24:09;;;;;;;1.67;0.90;;;13.90;99.90;;;;;;4148534;28;20050;-85
2023/10/24 03:26:10;;;;;;;1.98;1.20;;;13.90;99.90;;;;;;4147337;28;20491;-86
2023/10/24 03:28:11;;;;;;;1.70;0.90;;;13.90;99.90;;;;;;4144892;28;20033;-86
2023/10/24 03:30:11;;;;;;;3.42;1.05;;;13.90;99.90;;;;;;4138343;28;20054;-85
2023/10/24 03:32:12;;;;;;;1.13;0.80;;;13.90;99.90;;;;;;4138090;28;20038;-85
2023/10/24 03:34:12;;;;;;;1.35;0.80;;;13.80;99.90;;;;;;4124566;28;20038;-84
2023/10/24 03:36:13;;;;;;;1.25;0.70;;;13.80;99.90;;;;;;4127077;28;20522;-85
2023/10/24 03:38:14;;;;;;;0.65;0.60;;;13.90;99.90;;;;;;4129258;28;20479;-84
2023/10/24 03:40:14;;;;;;;1.40;0.80;;;13.90;99.90;;;;;;4128615;28;20442;-84
2023/10/24 03:42:15;;;;;;;1.48;0.80;;;13.90;99.90;;;;;;4137183;28;20117;-84
2023/10/24 03:44:15;;;;;;;0.85;0.70;;;13.80;99.90;;;;;;4144608;28;20037;-85
2023/10/24 03:46:16;;;;;;;2.35;1.13;;;13.80;99.90;;;;;;4133380;28;20467;-86
2023/10/24 03:48:17;;;;;;;0.73;0.73;;;13.80;99.90;;;;;;4123158;28;20027;-84
2023/10/24 03:50:18;;;;;;;1.30;0.90;;;13.80;99.90;;;;;;4143593;28;20052;-85
2023/10/24 03:52:18;;;;;;;0.98;0.63;;;13.80;99.90;;;;;;4138873;28;20782;-83
2023/10/24 03:54:19;;;;;;;1.50;0.80;;;13.70;99.90;;;;;;4123841;28;20023;-79
2023/10/24 03:56:20;;;;;;;1.45;0.82;;;13.70;99.90;;;;;;4132438;28;20100;-84
2023/10/24 03:58:20;;;;;;;1.30;0.80;;;13.70;99.90;;;;;;4133435;28;20038;-84
2023/10/24 04:00:21;;;;;;;1.83;0.90;;;13.70;99.90;;;;;;4126591;28;20537;-84
2023/10/24 04:02:22;;;;;;;3.88;0.90;;;13.70;99.90;;;;;;4126655;28;20125;-84
2023/10/24 04:04:23;;;;;;;0.90;0.80;;;13.60;99.90;;;;;;4128371;28;20022;-84
2023/10/24 04:06:23;;;;;;;1.23;0.88;;;13.60;99.90;;;;;;4126957;28;20122;-85
2023/10/24 04:08:24;;;;;;;1.10;0.70;;;13.60;99.90;;;;;;4128963;28;20459;-84
2023/10/24 04:10:25;;;;;;;4.05;0.82;;;13.70;99.90;;;;;;4129659;28;20049;-84
2023/10/24 04:12:25;;;;;;;2.25;1.00;;;13.70;99.90;;;;;;4131025;28;20030;-85
2023/10/24 04:14:26;;;;;;;1.10;0.85;;;13.70;99.90;;;;;;4127053;28;20963;-84
2023/10/24 04:16:26;;;;;;;1.25;0.75;;;13.60;99.90;;;;;;4125360;28;20117;-85
2023/10/24 04:18:27;;;;;;;1.88;0.90;;;13.70;99.90;;;;;;4129922;28;20042;-84
2023/10/24 04:20:28;;;;;;;2.53;0.68;;;13.60;99.90;;;;;;4127251;28;20034;-85
2023/10/24 04:22:28;;;;;;;1.27;0.88;;;13.70;99.90;;;;;;4129678;28;20050;-84
2023/10/24 04:24:29;;;;;;;0.93;0.80;;;13.60;99.90;;;;;;4124552;28;20091;-84
2023/10/24 04:26:29;;;;;;;1.83;0.90;;;13.70;99.90;;;;;;4129237;28;20034;-85
2023/10/24 04:28:30;;;;;;;1.35;0.80;;;13.60;99.90;;;;;;4127712;28;20034;-84
2023/10/24 04:30:30;;;;;;;2.10;1.10;;;13.60;99.90;;;;;;4122313;28;20046;-83
2023/10/24 04:32:31;;;;;;;6.47;1.23;;;13.60;99.90;;;;;;4124628;28;20034;-84
2023/10/24 04:34:32;;;;;;;2.40;1.10;;;13.60;99.90;;;;;;4125364;28;20467;-84
2023/10/24 04:36:32;;;;;;;2.25;1.17;;;13.60;99.90;;;;;;4118853;28;20030;-84
2023/10/24 04:38:33;;;;;;;2.75;0.93;;;13.60;99.90;;;;;;4125968;28;20034;-84
2023/10/24 04:40:37;;;;;;;1.20;0.68;;;13.60;99.90;;;;;;4124917;28;20027;-84
2023/10/24 04:42:38;;;;;;;3.83;0.90;;;13.60;99.90;;;;;;4126700;28;20487;-83
2023/10/24 04:44:39;;;;;;;2.17;1.02;;;13.60;99.90;;;;;;4110897;28;20047;-84
2023/10/24 04:46:40;;;;;;;1.17;0.90;;;13.60;99.90;;;;;;4125341;28;20471;-84
2023/10/24 04:48:40;;;;;;;1.17;0.88;;;13.60;99.90;;;;;;4109676;28;20547;-83
2023/10/24 04:50:41;;;;;;;0.98;0.90;;;13.60;99.90;;;;;;4107088;28;20058;-84
2023/10/24 04:52:41;;;;;;;1.00;0.90;;;13.60;99.90;;;;;;4126338;28;20077;-84
2023/10/24 04:54:42;;;;;;;1.83;0.90;;;13.60;99.90;;;;;;4129098;28;20037;-84
2023/10/24 04:56:43;;;;;;;1.70;1.27;;;13.60;99.90;;;;;;4124597;28;20077;-84
2023/10/24 04:58:43;;;;;;;1.27;1.17;;;13.60;99.90;;;;;;4126603;28;20026;-83
2023/10/24 05:00:44;;;;;;;1.13;1.00;;;13.60;99.90;;;;;;4124720;28;20430;-84
2023/10/24 05:02:45;;;;;;;2.50;1.20;;;13.60;99.90;;;;;;4127208;28;20038;-84
2023/10/24 05:04:45;;;;;;;1.13;1.02;;;13.60;99.90;;;;;;4109900;28;20039;-84
2023/10/24 05:06:46;;;;;;;1.60;0.98;;;13.50;99.90;;;;;;4123266;28;20058;-86
2023/10/24 05:08:46;;;;;;;1.80;1.08;;;13.60;99.90;;;;;;4126669;28;20058;-84
2023/10/24 05:10:49;;;;;;;2.50;1.30;;;13.60;99.90;;;;;;4125007;28;20044;-84
2023/10/24 05:12:50;;;;;;;;;;;13.60;99.90;;;;;;4097139;28;20038;-85
2023/10/24 05:14:50;;;;;;;3.42;1.42;;;13.60;99.90;;;;;;4126370;28;19909;-80
2023/10/24 05:16:51;;;;;;;3.40;1.58;;;13.60;99.90;;;;;;4123671;28;20454;-84
2023/10/24 05:18:52;;;;;;;2.28;1.40;;;13.50;99.90;;;;;;4126187;28;20118;-83
2023/10/24 05:20:52;;;;;;;2.20;1.63;;;13.50;99.90;;;;;;4124845;28;20463;-83
2023/10/24 05:22:53;;;;;;;1.58;1.17;;;13.50;99.90;;;;;;4123141;28;20039;-84
2023/10/24 05:24:54;;;;;;;1.35;1.10;;;13.50;99.90;;;;;;4124988;28;20491;-81
2023/10/24 05:26:55;;;;;;;3.58;1.30;;;13.50;99.90;;;;;;4122296;28;20030;-84
2023/10/24 05:28:55;;;;;;;2.25;1.50;;;13.50;99.90;;;;;;4125194;28;20130;-82
2023/10/24 05:30:56;;;;;;;1.50;1.20;;;13.50;99.90;;;;;;4108353;28;20526;-83
2023/10/24 05:32:58;;;;;;;4.93;1.70;;;13.50;99.90;;;;;;4120882;28;20471;-82
2023/10/24 05:34:58;;;;;;;2.67;1.50;;;13.60;99.90;;;;;;4125723;28;20030;-82
2023/10/24 05:36:59;;;;;;;3.22;1.70;;;13.60;99.90;;;;;;4122539;28;20088;-83
2023/10/24 05:39:00;;;;;;;2.33;1.38;;;13.60;99.90;;;;;;4124917;28;20036;-82
2023/10/24 05:41:01;;;;;;;1.80;1.30;;;13.60;99.90;;;;;;4124644;28;20486;-82
2023/10/24 05:43:01;;;;;;;1.58;1.48;;;13.50;99.90;;;;;;4126955;28;20045;-84
2023/10/24 05:45:03;;;;;;;1.60;1.40;;;13.60;99.90;;;;;;4127623;28;20030;-83
2023/10/24 05:47:03;;;;;;;1.65;1.38;;;13.50;99.90;;;;;;4127406;28;20459;-82
2023/10/24 05:49:04;;;;;;;3.97;1.60;;;13.50;99.90;;;;;;4122515;28;20027;-82
2023/10/24 05:51:07;;;;;;;3.03;1.92;;;13.50;99.90;;;;;;4127757;28;20046;-82
2023/10/24 05:53:08;;;;;;;3.00;1.85;;;13.50;99.90;;;;;;4126934;28;20053;-70
2023/10/24 05:55:09;;;;;;;2.08;1.70;;;13.50;99.90;;;;;;4128871;28;20038;-77
2023/10/24 05:57:09;;;;;;;4.45;1.60;;;13.50;99.90;;;;;;4127866;28;20034;-75
2023/10/24 05:59:10;;;;;;;1.80;1.40;;;13.40;99.90;;;;;;4128774;28;20093;-75
2023/10/24 06:01:10;;;;;;;1.65;1.42;;;13.50;99.90;;;;;;4127069;28;20089;-76
2023/10/24 06:03:11;;;;;;;3.20;1.90;;;13.40;99.90;;;;;;4129209;28;20046;-76
2023/10/24 06:05:12;;;;;;;2.25;1.38;;;13.40;99.90;;;;;;4128611;28;20391;-77
2023/10/24 06:07:13;;;;;;;2.58;1.60;;;13.50;99.90;;;;;;4129434;28;20034;-76
2023/10/24 06:09:14;;;;;;;2.67;1.85;;;13.40;99.90;;;;;;4116502;28;20130;-77
2023/10/24 06:11:16;;;;;;;4.93;1.90;;;13.40;99.90;;;;;;4128718;28;20061;-78
2023/10/24 06:13:16;;;;;;;2.57;1.63;;;13.40;99.90;;;;;;4129651;28;20100;-77
2023/10/24 06:15:17;;;;;;;2.95;1.85;;;13.40;99.90;;;;;;4128197;28;20042;-77
2023/10/24 06:17:18;;;;;;;3.53;1.67;;;13.40;99.90;;;;;;4128920;28;20498;-77
2023/10/24 06:19:18;;;;;;;3.45;1.80;;;13.40;99.90;;;;;;4128599;28;20447;-78
2023/10/24 06:21:19;;;;;;;3.05;1.70;;;13.40;99.90;;;;;;4128170;28;20128;-77
2023/10/24 06:23:20;;;;;;;3.13;1.70;;;13.40;99.90;;;;;;4129160;28;20045;-77
2023/10/24 06:25:20;;;;;;;2.47;2.08;;;13.40;99.90;;;;;;4127287;28;20031;-77
2023/10/24 06:27:21;;;;;;;1.92;1.70;;;13.40;99.90;;;;;;4128385;28;20519;-77
2023/10/24 06:29:22;;;;;;;2.17;1.48;;;13.40;99.90;;;;;;4128972;28;20072;-74
2023/10/24 06:31:22;;;;;;;2.97;1.88;;;13.40;99.90;;;;;;4127563;28;20065;-75
2023/10/24 06:33:23;;;;;;;2.45;2.05;;;13.40;99.90;;;;;;4128970;28;20038;-76
2023/10/24 06:35:23;;;;;;;3.33;2.20;;;13.40;99.90;;;;;;4127848;28;20472;-79
2023/10/24 06:37:24;;;;;;;3.00;1.95;;;13.40;99.90;;;;;;4111102;28;20039;-76
2023/10/24 06:39:24;;;;;;;5.63;2.50;;;13.40;99.90;;;;;;4128842;28;20030;-78
2023/10/24 06:41:25;;;;;;;3.08;1.90;;;13.40;99.90;;;;;;4127057;28;20446;-78
2023/10/24 06:43:27;;;;;;;3.95;2.40;;;13.30;99.90;;;;;;4134817;28;20101;-78
2023/10/24 06:45:27;;;;;;;2.13;1.70;;;13.40;99.90;;;;;;4108071;28;20041;-78
2023/10/24 06:47:28;;;;;;;4.68;2.10;;;13.40;99.90;;;;;;4132248;28;20470;-78
2023/10/24 06:49:28;;;;;;;5.57;2.58;;;13.30;99.90;;;;;;4135705;28;20045;-77
2023/10/24 06:51:29;;;;;;;4.55;2.00;;;13.30;99.90;;;;;;4129890;28;20038;-79
2023/10/24 06:53:29;;;;;;;2.78;2.03;;;13.40;99.90;;;;;;4132332;28;20634;-78
2023/10/24 06:55:30;;;;;;;2.95;1.98;;;13.30;99.90;;;;;;4108936;28;20077;-79
2023/10/24 06:57:31;;;;;;;3.03;2.03;;;13.30;99.90;;;;;;4127487;28;20035;-78
2023/10/24 06:59:32;;;;;;;2.38;1.80;;;13.30;99.90;;;;;;4134497;28;20045;-78
2023/10/24 07:01:32;;;;;;;2.83;1.60;;;13.40;99.90;;;;;;4131198;28;20402;-78
2023/10/24 07:03:33;;;;;;;4.45;2.05;;;13.40;99.90;;;;;;4136470;28;20509;-68
2023/10/24 07:05:34;;;;;;;3.78;2.10;;;13.30;99.90;;;;;;4135434;28;20038;-64
2023/10/24 07:07:36;;;;;;;1.63;1.38;;;13.30;99.90;;;;;;4131122;28;20040;-64
2023/10/24 07:09:36;;;;;;;2.85;1.70;;;13.30;99.90;;;;;;4119013;28;20030;-64
2023/10/24 07:11:37;;;;;;;2.47;1.65;;;13.40;99.90;;;;;;4132544;28;20053;-64
2023/10/24 07:13:38;;;;;;;4.57;1.80;;;13.40;99.90;;;;;;4136339;28;20066;-64
2023/10/24 07:15:41;;;;;;;2.35;1.35;;;13.40;99.90;;;;;;4132025;28;20446;-64
2023/10/24 07:17:42;;;;;;;1.92;1.55;;;13.40;99.90;;;;;;4133294;28;20046;-64
2023/10/24 07:19:43;;;;;;;2.63;1.65;;;13.50;99.90;;;;;;4137549;28;20037;-64
2023/10/24 07:21:44;;;;;;;3.05;1.50;;;13.40;99.90;;;;;;4133901;28;20133;-64
2023/10/24 07:23:44;;;;;;;1.98;1.45;;;13.40;99.90;;;;;;4135274;28;20064;-64
2023/10/24 07:25:45;;;;;;;4.68;1.38;;;13.40;99.90;;;;;;4127520;28;20057;-64
2023/10/24 07:27:46;;;;;;;2.33;1.70;;;13.40;99.90;;;;;;4127085;28;20051;-64
2023/10/24 07:29:47;;;;;;;3.10;1.83;;;13.40;99.90;;;;;;4135724;28;20053;-63
2023/10/24 07:31:47;;;;;;;2.60;1.75;;;13.40;99.90;;;;;;4143052;28;20034;-64
2023/10/24 07:33:48;;;;;;;2.53;1.80;;;13.50;99.90;;;;;;4138735;28;20497;-64
2023/10/24 07:35:50;;;;;;;1.52;1.27;;;13.50;99.90;;;;;;4143657;28;20034;-64
2023/10/24 07:37:51;;;;;;;2.80;1.58;;;13.50;99.90;;;;;;4139033;28;20066;-64
2023/10/24 07:39:52;;;;;;;3.42;1.50;;;13.50;99.90;;;;;;4141273;28;20084;-64
2023/10/24 07:41:53;;;;;;;1.80;1.60;;;13.50;99.90;;;;;;4137929;28;20478;-66
2023/10/24 07:43:53;;;;;;;2.17;1.50;;;13.50;99.90;;;;;;4139735;28;20057;-66
2023/10/24 07:45:54;;;;;;;2.45;1.40;;;13.50;99.90;;;;;;4140631;28;20034;-66
2023/10/24 07:47:55;;;;;;;2.92;1.70;;;13.50;99.90;;;;;;4141094;28;20037;-66
2023/10/24 07:49:55;;;;;;;1.80;1.23;;;13.50;99.90;;;;;;4141434;28;20053;-66
2023/10/24 07:51:56;;;;;;;3.35;1.88;;;13.50;99.90;;;;;;4140818;28;20402;-66
2023/10/24 07:53:57;;;;;;;2.75;1.60;;;13.50;99.90;;;;;;4124704;28;20061;-66
2023/10/24 07:55:58;;;;;;;2.33;1.30;;;13.50;99.90;;;;;;4139432;28;20057;-66
2023/10/24 07:57:58;;;;;;;3.08;1.58;;;13.50;99.90;;;;;;4143252;28;20100;-66
2023/10/24 07:59:59;;;;;;;2.50;1.45;;;13.50;99.90;;;;;;4142869;28;20128;-66
2023/10/24 08:01:59;;;;;;;2.72;1.63;;;13.50;99.90;;;;;;4142281;28;20088;-66
2023/10/24 08:04:00;;;;;;;3.17;1.75;;;13.50;99.90;;;;;;4142259;28;20029;-66
2023/10/24 08:06:01;;;;;;;2.00;1.40;;;13.50;99.90;;;;;;4141880;28;20046;-66
2023/10/24 08:08:02;;;;;;;2.67;1.27;;;13.40;99.90;;;;;;4143876;28;20116;-66
2023/10/24 08:10:03;;;;;;;2.05;1.50;;;13.40;99.90;;;;;;4141572;28;20046;-67
2023/10/24 08:12:04;;;;;;;2.70;1.45;;;13.50;99.90;;;;;;4141620;28;20471;-66
2023/10/24 08:14:04;;;;;;;1.48;1.00;;;13.50;99.90;;;;;;4142856;28;20041;-67
2023/10/24 08:16:09;;;;;;;2.92;1.50;;;13.50;99.90;;;;;;4141624;28;20029;-67
2023/10/24 08:18:09;;;;;;;1.95;1.40;;;13.50;99.90;;;;;;4142796;28;20077;-67
2023/10/24 08:20:10;;;;;;;2.08;1.20;;;13.60;99.90;;;;;;4143186;28;20029;-68
2023/10/24 08:22:11;;;;;;;1.52;1.10;;;13.50;99.90;;;;;;4142607;28;20065;-68
2023/10/24 08:24:12;;;;;;;1.75;1.30;;;13.50;99.90;;;;;;4144896;28;20481;-68
2023/10/24 08:26:12;;;;;;;2.45;1.30;;;13.50;99.90;;;;;;4150357;28;20034;-68
2023/10/24 08:28:13;;;;;;;2.40;1.48;;;13.50;99.90;;;;;;4150476;28;20394;-68
2023/10/24 08:30:14;;;;;;;2.88;1.35;;;13.50;99.90;;;;;;4132684;28;20045;-68
2023/10/24 08:32:14;;;;;;;1.42;1.05;;;13.50;99.90;;;;;;4128680;28;20104;-68
2023/10/24 08:34:15;;;;;;;2.00;1.52;;;13.60;99.90;;;;;;4109711;28;20463;-67
2023/10/24 08:36:16;;;;;;;3.15;1.55;;;13.60;99.90;;;;;;4124927;28;20038;-68
2023/10/24 08:38:16;;;;;;;1.83;1.30;;;13.50;99.90;;;;;;4128549;28;20041;-67
2023/10/24 08:40:17;;;;;;;2.00;1.45;;;13.60;99.90;;;;;;4125383;28;20074;-67
2023/10/24 08:42:18;;;;;;;1.98;1.10;;;13.60;99.90;;;;;;4127458;28;20050;-67
2023/10/24 08:44:20;;;;;;;2.33;1.20;;;13.60;99.90;;;;;;4109587;28;20038;-68
2023/10/24 08:46:21;;;;;;;1.52;1.05;;;13.60;99.90;;;;;;4093001;28;20067;-67
2023/10/24 08:48:22;;;;;;;1.60;1.13;;;13.60;99.90;;;;;;4128252;28;20042;-67
2023/10/24 08:50:23;;;;;;;1.75;1.20;;;13.70;99.90;;;;;;4126569;28;20038;-67
2023/10/24 08:52:23;;;;;;;2.40;1.27;;;13.70;99.90;;;;;;4123731;28;20092;-68
2023/10/24 08:54:25;;;;;;;1.80;1.42;;;13.70;99.90;;;;;;4140233;28;20061;-68
2023/10/24 08:56:26;;;;;;;1.52;1.10;;;13.80;99.90;;;;;;4136446;28;20034;-68
2023/10/24 08:58:28;;;;;;;3.78;1.40;;;13.70;99.90;;;;;;4121660;28;20027;-68
2023/10/24 09:00:29;;;;;;;1.98;1.35;;;13.80;99.90;;;;;;4126133;28;20391;-68
2023/10/24 09:02:30;;;;;;;1.52;1.20;;;13.80;99.90;;;;;;4126927;28;20042;-67
2023/10/24 09:04:33;;;;;;;2.00;1.27;;;13.80;99.90;;;;;;4127084;28;20483;-67
2023/10/24 09:06:34;;;;;;;2.75;1.15;;;13.80;99.90;;;;;;4125837;28;20061;-67
2023/10/24 09:08:34;;;;;;;2.78;1.52;;;13.80;99.90;;;;;;4126805;28;20470;-67
2023/10/24 09:10:35;;;;;;;1.75;1.00;;;13.80;99.90;;;;;;4108903;28;20126;-68
2023/10/24 09:12:38;;;;;;;1.67;0.90;;;13.80;99.90;;;;;;4129055;28;20027;-67
2023/10/24 09:14:39;;;;;;;1.35;1.10;;;13.80;99.90;;;;;;4128866;28;20034;-68
2023/10/24 09:16:40;;;;;;;1.77;1.15;;;13.80;99.90;;;;;;4108319;28;20049;-67
2023/10/24 09:18:41;;;;;;;2.72;1.30;;;13.90;99.90;;;;;;4109880;28;20143;-68
2023/10/24 09:20:45;;;;;;;1.10;0.90;;;13.90;99.90;;;;;;4127562;28;20038;-68
2023/10/24 09:22:46;;;;;;;0.95;0.85;;;13.90;99.90;;;;;;4129529;28;20493;-68
2023/10/24 09:24:48;;;;;;;3.17;1.10;;;13.90;99.90;;;;;;4130159;28;20030;-75
2023/10/24 09:26:56;;;;;;;3.05;1.23;;;13.90;99.90;;;;;;4129707;28;20031;-74
2023/10/24 09:28:57;;;;;;;1.33;1.02;;;14.00;99.90;;;;;;4126822;28;20125;-75
2023/10/24 09:30:58;;;;;;;1.92;1.20;;;14.10;99.90;;;;;;4130513;28;20053;-75
2023/10/24 09:33:00;;;;;;;6.28;1.33;;;14.20;99.90;;;;;;4129948;28;20038;-77
2023/10/24 09:35:03;;;;;;;2.45;1.10;;;14.20;99.90;;;;;;4096174;28;20039;-76
2023/10/24 09:37:07;;;;;;;2.00;0.95;;;14.40;99.90;;;;;;4112358;28;20042;-77
2023/10/24 09:39:15;;;;;;;1.88;1.02;;;14.50;99.90;;;;;;4126308;28;20600;-77
2023/10/24 09:41:16;;;;;;;2.40;1.20;;;14.60;99.90;;;;;;4123671;28;20030;-76
2023/10/24 09:43:26;;;;;;;2.25;1.20;;;14.60;99.90;;;;;;4129843;28;20042;-76
2023/10/24 09:45:27;;;;;;;2.13;1.17;;;14.60;99.90;;;;;;4128450;28;20034;-76
2023/10/24 09:47:28;;;;;;;1.80;0.90;;;14.70;99.90;;;;;;4133144;28;20115;-77
2023/10/24 09:49:28;;;;;;;1.67;1.13;;;14.70;99.90;;;;;;4110943;28;20043;-77
2023/10/24 09:51:31;;;;;;;1.63;1.20;;;14.70;99.90;;;;;;4128433;28;20117;-76
2023/10/24 09:53:32;;;;;;;2.15;0.90;;;14.70;99.90;;;;;;4129272;28;20168;-77
2023/10/24 09:55:35;;;;;;;1.50;0.85;;;14.70;99.90;;;;;;4127974;28;20113;-77
2023/10/24 09:57:38;;;;;;;2.60;1.10;;;14.70;99.90;;;;;;4131243;28;20035;-76
2023/10/24 09:59:39;;;;;;;;;;;14.70;99.90;;;;;;4128642;28;20066;-77
2023/10/24 10:01:40;;;;;;;6.22;0.93;;;14.70;99.90;;;;;;4125600;28;19937;-77
2023/10/24 10:03:43;;;;;;;1.15;1.00;;;14.60;99.90;;;;;;4110786;28;21307;-77
2023/10/24 10:05:44;;;;;;;2.55;1.25;;;14.70;99.90;;;;;;4127323;28;20100;-77
2023/10/24 10:07:49;;;;;;;1.95;1.20;;;14.70;99.90;;;;;;4129393;28;20073;-77
2023/10/24 10:09:53;;;;;;;2.08;1.20;;;14.70;99.90;;;;;;4128567;28;20124;-77
2023/10/24 10:11:57;;;;;;;4.45;1.25;;;14.70;99.90;;;;;;4111264;28;20039;-77
2023/10/24 10:14:13;;;;;;;1.30;1.05;;;14.70;99.90;;;;;;4128782;28;20042;-77
2023/10/24 10:16:45;;;;;;;1.75;1.23;;;14.70;99.90;;;;;;4128740;28;20125;-77
2023/10/24 10:18:52;;;;;;;1.70;1.02;;;14.70;99.90;;;;;;4129031;28;20039;-77
2023/10/24 10:20:59;;;;;;;2.75;1.20;;;14.80;99.90;;;;;;4129313;28;20117;-77
2023/10/24 10:23:45;;;;;;;1.08;0.80;;;14.70;99.90;;;;;;4127471;28;20042;-77
2023/10/24 10:26:06;;;;;;;2.95;1.40;;;14.80;99.90;;;;;;4121637;28;20035;-77
2023/10/24 10:28:28;;;;;;;2.10;0.95;;;14.70;99.90;;;;;;4111925;28;20110;-78
2023/10/24 10:30:35;;;;;;;2.20;1.27;;;14.80;99.90;;;;;;4142634;28;20077;-77
2023/10/24 10:33:09;;;;;;;1.65;1.10;;;14.80;99.90;;;;;;4143167;28;20042;-77